This is the latest recevied weather packets stored in our database for station/object OK1TRJ-5. If no packets are shown the sender has not sent any weather packets the latest 10 day(s).
| Time | Temp. | Humidity | Pressure | Rain* | Wind** | Luminosity | Snow |
|---|---|---|---|---|---|---|---|
| 1778274001 | 10° C | 85% | 1016 hPa | 0 mm | - | - | - |
| 1778273102 | 10.56° C | 84% | 1016 hPa | 0 mm | - | - | - |
| 1778272202 | 10.56° C | 83% | 1016 hPa | 0 mm | - | - | - |
| 1778271302 | 11.11° C | 82% | 1016 hPa | 0 mm | - | - | - |
| 1778270403 | 11.11° C | 81% | 1016 hPa | 0 mm | - | - | - |
| 1778269502 | 11.67° C | 80% | 1016 hPa | 0 mm | - | - | - |
| 1778268602 | 12.22° C | 78% | 1016 hPa | 0 mm | - | - | - |
| 1778267703 | 12.22° C | 77% | 1016 hPa | 0 mm | - | - | - |
| 1778266802 | 12.78° C | 75% | 1015 hPa | 0 mm | - | - | - |
| 1778265902 | 12.78° C | 74% | 1015 hPa | 0 mm | - | - | - |
| 1778265002 | 13.33° C | 72% | 1015 hPa | 0 mm | - | - | - |
| 1778264102 | 13.89° C | 69% | 1015 hPa | 0 mm | - | - | - |
| 1778263203 | 15° C | 66% | 1014 hPa | 0 mm | - | - | - |
| 1778262302 | 15° C | 65% | 1014 hPa | 0 mm | - | - | - |
| 1778261402 | 15° C | 66% | 1014 hPa | 0 mm | - | - | - |
| 1778260502 | 15° C | 66% | 1014 hPa | 0 mm | - | - | - |
| 1778259603 | 15° C | 65% | 1014 hPa | 0 mm | - | - | - |
| 1778258702 | 15.56° C | 62% | 1014 hPa | 0 mm | - | - | - |
| 1778257803 | 15.56° C | 62% | 1014 hPa | 0 mm | - | - | - |
| 1778256902 | 16.11° C | 57% | 1014 hPa | 0 mm | - | - | - |
| 1778256003 | 16.67° C | 54% | 1014 hPa | 0 mm | - | - | - |
| 1778255102 | 16.11° C | 56% | 1014 hPa | 0 mm | - | - | - |
| 1778254202 | 16.67° C | 54% | 1014 hPa | 0 mm | - | - | - |
| 1778253302 | 17.22° C | 52% | 1014 hPa | 0 mm | - | - | - |
| 1778252402 | 16.67° C | 54% | 1014 hPa | 0 mm | - | - | - |
* Rain latest hour (hover to see other rain measurements)
** Current wind speed in m/s (hover to see current wind gust speed)